Time,TemperatureF,DewpointF,PressureIn,WindDirection,WindDirectionDegrees,WindSpeedMPH,WindSpeedGustMPH,Humidity,HourlyPrecipIn,Conditions,Clouds,dailyrainin,SoftwareType,DateUTC
2013-07-10 00:01:00,78.5,17.4,30.07,WSW,248,1.6,2.9,1,0.00,,,0.00,WUHU216HW,2013-07-10 04:01:00,
2013-07-10 00:06:00,78.5,17.4,30.07,WSW,248,1.8,2.9,1,0.00,,,0.00,WUHU216HW,2013-07-10 04:06:00,
2013-07-10 00:11:00,78.5,17.4,30.07,WNW,293,1.3,2.0,1,0.00,,,0.00,WUHU216HW,2013-07-10 04:11:00,
2013-07-10 00:16:00,78.3,17.3,30.07,WSW,248,1.6,1.8,1,0.00,,,0.00,WUHU216HW,2013-07-10 04:16:00,
2013-07-10 00:21:00,78.3,17.3,30.07,NNW,338,0.9,1.8,1,0.00,,,0.00,WUHU216HW,2013-07-10 04:21:00,
2013-07-10 00:26:00,78.1,17.1,30.07,West,270,0.9,2.5,1,0.00,,,0.00,WUHU216HW,2013-07-10 04:26:00,
2013-07-10 00:31:00,78.1,17.1,30.07,WSW,248,1.1,2.5,1,0.00,,,0.00,WUHU216HW,2013-07-10 04:31:00,
2013-07-10 00:36:00,78.1,17.1,30.07,WSW,248,0.2,2.5,1,0.00,,,0.00,WUHU216HW,2013-07-10 04:36:00,
2013-07-10 00:41:00,77.9,17.0,30.07,WSW,248,0.9,2.5,1,0.00,,,0.00,WUHU216HW,2013-07-10 04:41:00,
2013-07-10 00:46:00,77.9,17.0,30.07,SW,225,1.1,1.8,1,0.00,,,0.00,WUHU216HW,2013-07-10 04:46:00,
2013-07-10 00:51:00,77.8,16.9,30.06,WSW,248,1.1,1.6,1,0.00,,,0.00,WUHU216HW,2013-07-10 04:51:00,
2013-07-10 00:56:00,77.8,16.9,30.06,SW,225,0.4,1.6,1,0.00,,,0.00,WUHU216HW,2013-07-10 04:56:00,
2013-07-10 01:01:00,77.6,16.7,30.06,West,270,2.0,2.0,1,0.00,,,0.00,WUHU216HW,2013-07-10 05:01:00,
2013-07-10 01:06:00,77.6,16.7,30.06,WSW,248,1.1,2.0,1,0.00,,,0.00,WUHU216HW,2013-07-10 05:06:00,
2013-07-10 01:11:00,77.6,16.7,30.06,WSW,248,1.8,2.2,1,0.00,,,0.00,WUHU216HW,2013-07-10 05:11:00,
2013-07-10 01:16:00,77.4,16.7,30.06,South,180,0.9,2.5,1,0.00,,,0.00,WUHU216HW,2013-07-10 05:16:00,
2013-07-10 01:21:00,77.4,16.7,30.05,WSW,248,1.1,2.5,1,0.00,,,0.00,WUHU216HW,2013-07-10 05:21:00,
2013-07-10 01:26:00,77.2,16.5,30.05,WSW,248,1.1,2.7,1,0.00,,,0.00,WUHU216HW,2013-07-10 05:26:00,
2013-07-10 01:31:00,77.0,16.4,30.05,WSW,248,2.5,2.7,1,0.00,,,0.00,WUHU216HW,2013-07-10 05:31:00,
2013-07-10 01:36:00,77.0,16.4,30.05,SSW,203,1.1,2.5,1,0.00,,,0.00,WUHU216HW,2013-07-10 05:36:00,
2013-07-10 01:41:00,76.9,16.2,30.05,SW,225,0.7,2.5,1,0.00,,,0.00,WUHU216HW,2013-07-10 05:41:00,
2013-07-10 01:46:00,76.7,16.1,30.05,WSW,248,0.9,1.8,1,0.00,,,0.00,WUHU216HW,2013-07-10 05:46:00,
2013-07-10 01:51:00,76.3,15.9,30.05,West,270,2.2,2.5,1,0.00,,,0.00,WUHU216HW,2013-07-10 05:51:00,
2013-07-10 01:56:00,76.3,15.9,30.05,WSW,248,0.4,2.5,1,0.00,,,0.00,WUHU216HW,2013-07-10 05:56:00,
2013-07-10 02:01:00,76.0,15.5,30.05,WSW,248,2.5,2.5,1,0.00,,,0.00,WUHU216HW,2013-07-10 06:01:00,
2013-07-10 02:06:00,75.8,15.4,30.05,WSW,248,2.9,2.9,1,0.00,,,0.00,WUHU216HW,2013-07-10 06:06:00,
2013-07-10 02:11:00,75.8,15.4,30.05,WSW,248,0.4,2.9,1,0.00,,,0.00,WUHU216HW,2013-07-10 06:11:00,
2013-07-10 02:16:00,75.1,14.9,30.05,WNW,293,0.7,2.9,1,0.00,,,0.00,WUHU216HW,2013-07-10 06:16:00,
2013-07-10 02:21:00,74.9,14.7,30.05,SW,225,0.0,2.5,1,0.00,,,0.00,WUHU216HW,2013-07-10 06:21:00,
2013-07-10 02:26:00,74.7,14.6,30.05,North,0,0.7,2.5,1,0.00,,,0.00,WUHU216HW,2013-07-10 06:26:00,
2013-07-10 02:31:00,74.5,14.4,30.04,NE,45,1.1,1.1,1,0.00,,,0.00,WUHU216HW,2013-07-10 06:31:00,
2013-07-10 02:36:00,74.2,14.2,30.04,WSW,248,0.0,1.1,1,0.00,,,0.00,WUHU216HW,2013-07-10 06:36:00,
2013-07-10 02:41:00,73.6,13.8,30.04,WSW,248,1.1,1.8,1,0.00,,,0.00,WUHU216HW,2013-07-10 06:41:00,
2013-07-10 02:46:00,73.6,13.8,30.04,WSW,248,1.1,1.8,1,0.00,,,0.00,WUHU216HW,2013-07-10 06:46:00,
2013-07-10 02:51:00,73.1,13.4,30.04,SW,225,1.1,2.0,1,0.00,,,0.00,WUHU216HW,2013-07-10 06:51:00,
2013-07-10 02:56:00,73.1,13.4,30.04,SW,225,0.9,2.0,1,0.00,,,0.00,WUHU216HW,2013-07-10 06:56:00,
2013-07-10 03:01:00,72.5,13.0,30.04,WSW,248,2.5,2.5,1,0.00,,,0.00,WUHU216HW,2013-07-10 07:01:00,
2013-07-10 03:06:00,72.2,12.7,30.04,West,270,1.8,2.5,1,0.00,,,0.00,WUHU216HW,2013-07-10 07:06:00,
2013-07-10 03:11:00,72.2,12.7,30.03,WSW,248,1.1,1.8,1,0.00,,,0.00,WUHU216HW,2013-07-10 07:11:00,
2013-07-10 03:16:00,72.4,12.8,30.03,WSW,248,1.8,2.7,1,0.00,,,0.00,WUHU216HW,2013-07-10 07:16:00,
2013-07-10 03:21:00,72.0,12.5,30.03,NNW,338,0.7,2.7,1,0.00,,,0.00,WUHU216HW,2013-07-10 07:21:00,
2013-07-10 03:26:00,72.0,12.5,30.03,West,270,0.4,1.3,1,0.00,,,0.00,WUHU216HW,2013-07-10 07:26:00,
2013-07-10 03:31:00,72.2,12.7,30.04,SW,225,1.6,1.8,1,0.00,,,0.00,WUHU216HW,2013-07-10 07:31:00,
2013-07-10 03:36:00,72.0,12.5,30.03,WSW,248,2.5,3.4,1,0.00,,,0.00,WUHU216HW,2013-07-10 07:36:00,
2013-07-10 03:41:00,72.0,12.5,30.03,WSW,248,0.4,3.4,1,0.00,,,0.00,WUHU216HW,2013-07-10 07:41:00,
2013-07-10 03:46:00,72.4,12.8,30.03,SW,225,0.4,2.5,1,0.00,,,0.00,WUHU216HW,2013-07-10 07:46:00,
2013-07-10 03:51:00,72.0,12.5,30.04,SW,225,1.3,1.3,1,0.00,,,0.00,WUHU216HW,2013-07-10 07:51:00,
2013-07-10 03:56:00,72.0,12.5,30.03,SW,225,0.0,1.3,1,0.00,,,0.00,WUHU216HW,2013-07-10 07:56:00,
2013-07-10 04:01:00,72.0,12.5,30.04,WSW,248,0.9,1.3,1,0.00,,,0.00,WUHU216HW,2013-07-10 08:01:00,
2013-07-10 04:06:00,71.8,12.4,30.04,SW,225,0.4,1.1,1,0.00,,,0.00,WUHU216HW,2013-07-10 08:06:00,
2013-07-10 04:11:00,71.5,12.1,30.04,WSW,248,1.1,1.6,1,0.00,,,0.00,WUHU216HW,2013-07-10 08:11:00,
2013-07-10 04:16:00,71.5,12.1,30.04,SW,225,0.2,2.5,1,0.00,,,0.00,WUHU216HW,2013-07-10 08:16:00,
2013-07-10 04:21:00,71.1,11.8,30.04,WSW,248,1.8,2.5,1,0.00,,,0.00,WUHU216HW,2013-07-10 08:21:00,
2013-07-10 04:26:00,70.6,11.3,30.03,NW,315,0.7,2.2,1,0.00,,,0.00,WUHU216HW,2013-07-10 08:26:00,
2013-07-10 04:31:00,70.7,11.5,30.03,NW,315,1.1,2.2,1,0.00,,,0.00,WUHU216HW,2013-07-10 08:31:00,
2013-07-10 04:36:00,70.6,11.3,30.03,West,270,0.0,2.2,1,0.00,,,0.00,WUHU216HW,2013-07-10 08:36:00,
2013-07-10 04:41:00,70.6,11.3,30.03,West,270,0.9,1.3,1,0.00,,,0.00,WUHU216HW,2013-07-10 08:41:00,
2013-07-10 04:46:00,70.6,11.3,30.03,WSW,248,2.0,2.0,1,0.00,,,0.00,WUHU216HW,2013-07-10 08:46:00,
2013-07-10 04:51:00,70.4,11.3,30.03,WSW,248,1.6,2.0,1,0.00,,,0.00,WUHU216HW,2013-07-10 08:51:00,
2013-07-10 04:56:00,70.4,11.3,30.03,WSW,248,0.7,2.0,1,0.00,,,0.00,WUHU216HW,2013-07-10 08:56:00,
2013-07-10 05:01:00,70.4,11.3,30.03,WSW,248,1.3,2.0,1,0.00,,,0.00,WUHU216HW,2013-07-10 09:01:00,
2013-07-10 05:06:00,70.4,11.3,30.03,WSW,248,0.0,2.0,1,0.00,,,0.00,WUHU216HW,2013-07-10 09:06:00,
2013-07-10 05:11:00,70.2,11.1,30.03,NW,315,0.9,1.3,1,0.00,,,0.00,WUHU216HW,2013-07-10 09:11:00,
2013-07-10 05:16:00,70.4,11.3,30.03,South,180,2.0,2.0,1,0.00,,,0.00,WUHU216HW,2013-07-10 09:16:00,
2013-07-10 05:21:00,70.2,11.1,30.03,WSW,248,1.8,2.0,1,0.00,,,0.00,WUHU216HW,2013-07-10 09:21:00,
2013-07-10 05:26:00,70.4,11.3,30.03,SW,225,1.1,2.5,1,0.00,,,0.00,WUHU216HW,2013-07-10 09:26:00,
2013-07-10 05:31:00,70.2,11.1,30.03,WSW,248,0.7,2.5,1,0.00,,,0.00,WUHU216HW,2013-07-10 09:31:00,
2013-07-10 05:36:00,70.0,11.0,30.04,WSW,248,1.8,2.9,1,0.00,,,0.00,WUHU216HW,2013-07-10 09:36:00,
2013-07-10 05:41:00,69.8,10.8,30.04,WSW,248,0.4,2.9,1,0.00,,,0.00,WUHU216HW,2013-07-10 09:41:00,
2013-07-10 05:46:00,70.0,11.0,30.04,WSW,248,3.4,3.4,1,0.00,,,0.00,WUHU216HW,2013-07-10 09:46:00,
2013-07-10 05:51:00,70.0,11.0,30.03,West,270,0.9,3.4,1,0.00,,,0.00,WUHU216HW,2013-07-10 09:51:00,
2013-07-10 05:56:00,69.8,10.8,30.04,North,0,0.0,3.4,1,0.00,,,0.00,WUHU216HW,2013-07-10 09:56:00,
2013-07-10 06:01:00,69.7,10.7,30.04,West,270,0.7,1.1,1,0.00,,,0.00,WUHU216HW,2013-07-10 10:01:00,
2013-07-10 06:06:00,69.7,10.7,30.03,WSW,248,0.4,2.7,1,0.00,,,0.00,WUHU216HW,2013-07-10 10:06:00,
2013-07-10 06:11:00,69.5,10.5,30.03,West,270,0.7,2.7,1,0.00,,,0.00,WUHU216HW,2013-07-10 10:11:00,
2013-07-10 06:16:00,69.3,10.5,30.03,NE,45,1.1,1.8,1,0.00,,,0.00,WUHU216HW,2013-07-10 10:16:00,
2013-07-10 06:21:00,69.3,10.5,30.03,WSW,248,0.4,1.1,1,0.00,,,0.00,WUHU216HW,2013-07-10 10:21:00,
2013-07-10 06:26:00,69.5,10.5,30.03,West,270,1.6,1.8,1,0.00,,,0.00,WUHU216HW,2013-07-10 10:26:00,
2013-07-10 06:31:00,69.5,10.5,30.03,SW,225,0.7,1.8,1,0.00,,,0.00,WUHU216HW,2013-07-10 10:31:00,
2013-07-10 06:36:00,69.7,10.7,30.03,WSW,248,0.9,2.7,1,0.00,,,0.00,WUHU216HW,2013-07-10 10:36:00,
2013-07-10 06:41:00,69.7,10.7,30.03,SSW,203,0.7,2.7,1,0.00,,,0.00,WUHU216HW,2013-07-10 10:41:00,
2013-07-10 06:46:00,69.8,10.8,30.04,WSW,248,0.9,1.8,1,0.00,,,0.00,WUHU216HW,2013-07-10 10:46:00,
2013-07-10 06:51:00,70.0,11.0,30.03,SSW,203,0.4,1.6,1,0.00,,,0.00,WUHU216HW,2013-07-10 10:51:00,
2013-07-10 06:56:00,70.0,11.0,30.03,NNW,338,0.2,3.4,1,0.00,,,0.00,WUHU216HW,2013-07-10 10:56:00,
2013-07-10 07:01:00,70.2,11.1,30.03,WSW,248,2.2,3.4,1,0.00,,,0.00,WUHU216HW,2013-07-10 11:01:00,
2013-07-10 07:06:00,70.4,11.3,30.03,NNW,338,1.1,3.4,1,0.00,,,0.00,WUHU216HW,2013-07-10 11:06:00,
2013-07-10 07:11:00,70.6,11.3,30.04,WSW,248,1.1,3.4,1,0.00,,,0.00,WUHU216HW,2013-07-10 11:11:00,
2013-07-10 07:16:00,70.6,11.3,30.04,WSW,248,0.7,1.8,1,0.00,,,0.00,WUHU216HW,2013-07-10 11:16:00,
2013-07-10 07:21:00,70.9,11.7,30.04,WSW,248,1.1,1.8,1,0.00,,,0.00,WUHU216HW,2013-07-10 11:21:00,
2013-07-10 07:26:00,71.1,11.8,30.03,WSW,248,0.9,1.1,1,0.00,,,0.00,WUHU216HW,2013-07-10 11:26:00,
2013-07-10 07:31:00,71.6,12.2,30.03,WSW,248,0.4,1.8,1,0.00,,,0.00,WUHU216HW,2013-07-10 11:31:00,
2013-07-10 07:36:00,72.0,12.5,30.03,WSW,248,0.9,1.8,1,0.00,,,0.00,WUHU216HW,2013-07-10 11:36:00,
2013-07-10 07:41:00,72.5,13.0,30.03,SSW,203,0.4,1.8,1,0.00,,,0.00,WUHU216HW,2013-07-10 11:41:00,
2013-07-10 07:46:00,74.9,14.7,30.03,WSW,248,1.1,2.2,1,0.00,,,0.00,WUHU216HW,2013-07-10 11:46:00,
2013-07-10 07:51:00,76.9,16.2,30.03,WSW,248,1.8,2.7,1,0.00,,,0.00,WUHU216HW,2013-07-10 11:51:00,
2013-07-10 07:56:00,77.8,16.9,30.02,WSW,248,2.5,2.7,1,0.00,,,0.00,WUHU216HW,2013-07-10 11:56:00,
2013-07-10 08:01:00,78.7,17.6,30.02,West,270,0.7,4.5,1,0.00,,,0.00,WUHU216HW,2013-07-10 12:01:00,
2013-07-10 08:06:00,79.6,18.2,30.02,WSW,248,1.1,4.7,1,0.00,,,0.00,WUHU216HW,2013-07-10 12:06:00,
2013-07-10 08:11:00,80.6,19.1,30.02,West,270,6.7,6.7,1,0.00,,,0.00,WUHU216HW,2013-07-10 12:11:00,
2013-07-10 08:16:00,81.2,19.5,30.02,West,270,1.6,6.7,1,0.00,,,0.00,WUHU216HW,2013-07-10 12:16:00,
2013-07-10 08:21:00,81.5,19.8,30.02,WSW,248,2.9,4.7,1,0.00,,,0.00,WUHU216HW,2013-07-10 12:21:00,
2013-07-10 08:26:00,81.7,20.0,30.03,WSW,248,0.9,2.9,1,0.00,,,0.00,WUHU216HW,2013-07-10 12:26:00,
2013-07-10 08:31:00,82.4,20.5,30.03,WSW,248,2.2,2.9,1,0.00,,,0.00,WUHU216HW,2013-07-10 12:31:00,
2013-07-10 08:36:00,82.8,20.8,30.03,West,270,2.5,4.7,1,0.00,,,0.00,WUHU216HW,2013-07-10 12:36:00,
2013-07-10 08:41:00,82.3,20.3,30.03,SSW,203,2.5,4.7,1,0.00,,,0.00,WUHU216HW,2013-07-10 12:41:00,
2013-07-10 08:46:00,81.4,19.6,30.02,NW,315,1.8,2.5,1,0.00,,,0.00,WUHU216HW,2013-07-10 12:46:00,
2013-07-10 08:51:00,81.0,19.4,30.02,WSW,248,2.7,2.7,1,0.00,,,0.00,WUHU216HW,2013-07-10 12:51:00,
2013-07-10 08:56:00,80.6,19.1,30.03,WSW,248,2.0,2.7,1,0.00,,,0.00,WUHU216HW,2013-07-10 12:56:00,
2013-07-10 09:01:00,80.6,19.1,30.02,WSW,248,2.5,2.7,1,0.00,,,0.00,WUHU216HW,2013-07-10 13:01:00,
2013-07-10 09:06:00,80.5,18.9,30.02,WSW,248,1.1,2.5,1,0.00,,,0.00,WUHU216HW,2013-07-10 13:06:00,
2013-07-10 09:11:00,81.4,19.6,30.02,WSW,248,1.8,2.5,1,0.00,,,0.00,WUHU216HW,2013-07-10 13:11:00,
2013-07-10 09:16:00,81.4,19.6,30.03,WSW,248,1.8,2.2,1,0.00,,,0.00,WUHU216HW,2013-07-10 13:16:00,
2013-07-10 09:21:00,81.2,19.5,30.02,NW,315,1.1,2.2,1,0.00,,,0.00,WUHU216HW,2013-07-10 13:21:00,
2013-07-10 09:26:00,81.5,19.8,30.03,WSW,248,2.2,2.7,1,0.00,,,0.00,WUHU216HW,2013-07-10 13:26:00,
2013-07-10 09:31:00,81.7,20.0,30.03,WSW,248,1.8,3.8,1,0.00,,,0.00,WUHU216HW,2013-07-10 13:31:00,
2013-07-10 09:36:00,82.4,20.5,30.03,West,270,3.4,4.0,1,0.00,,,0.00,WUHU216HW,2013-07-10 13:36:00,
2013-07-10 09:41:00,83.2,21.1,30.03,SW,225,2.0,4.0,1,0.00,,,0.00,WUHU216HW,2013-07-10 13:41:00,
2013-07-10 09:46:00,84.4,22.0,30.03,WSW,248,1.3,3.4,1,0.00,,,0.00,WUHU216HW,2013-07-10 13:46:00,
2013-07-10 09:51:00,85.5,22.8,30.03,NNW,338,0.9,2.5,1,0.00,,,0.00,WUHU216HW,2013-07-10 13:51:00,
2013-07-10 09:56:00,86.0,23.2,30.02,West,270,2.2,2.5,1,0.00,,,0.00,WUHU216HW,2013-07-10 13:56:00,
2013-07-10 10:01:00,86.6,23.7,30.03,West,270,1.6,2.7,1,0.00,,,0.00,WUHU216HW,2013-07-10 14:01:00,
2013-07-10 10:06:00,86.4,23.5,30.02,SW,225,1.8,2.7,1,0.00,,,0.00,WUHU216HW,2013-07-10 14:06:00,
2013-07-10 10:11:00,86.4,23.5,30.03,WSW,248,2.5,4.0,1,0.00,,,0.00,WUHU216HW,2013-07-10 14:11:00,
2013-07-10 10:16:00,86.9,23.9,30.03,WNW,293,1.1,4.0,1,0.00,,,0.00,WUHU216HW,2013-07-10 14:16:00,
2013-07-10 10:21:00,88.4,25.0,30.02,NNW,338,1.3,4.5,1,0.00,,,0.00,WUHU216HW,2013-07-10 14:21:00,
2013-07-10 10:26:00,88.6,25.2,30.02,WSW,248,1.8,5.6,5,0.00,,,0.00,WUHU216HW,2013-07-10 14:26:00,
2013-07-10 10:31:00,88.2,24.9,30.02,WSW,248,0.4,5.6,7,0.00,,,0.00,WUHU216HW,2013-07-10 14:31:00,
2013-07-10 10:36:00,87.5,24.4,30.03,West,270,1.1,2.7,2,0.00,,,0.00,WUHU216HW,2013-07-10 14:36:00,
2013-07-10 10:41:00,87.3,24.2,30.03,WSW,248,1.1,1.8,1,0.00,,,0.00,WUHU216HW,2013-07-10 14:41:00,
2013-07-10 10:46:00,86.9,23.9,30.03,West,270,1.1,2.0,1,0.00,,,0.00,WUHU216HW,2013-07-10 14:46:00,
2013-07-10 10:51:00,86.4,23.5,30.03,WSW,248,1.1,2.0,1,0.00,,,0.00,WUHU216HW,2013-07-10 14:51:00,
2013-07-10 10:56:00,86.6,23.7,30.03,WSW,248,0.4,2.5,1,0.00,,,0.00,WUHU216HW,2013-07-10 14:56:00,
2013-07-10 11:01:00,86.8,23.8,30.02,WSW,248,1.8,2.5,1,0.00,,,0.00,WUHU216HW,2013-07-10 15:01:00,
2013-07-10 11:06:00,87.5,24.4,30.03,NW,315,0.7,3.1,1,0.00,,,0.00,WUHU216HW,2013-07-10 15:06:00,
2013-07-10 11:11:00,87.8,24.7,30.03,WSW,248,1.1,3.1,1,0.00,,,0.00,WUHU216HW,2013-07-10 15:11:00,
2013-07-10 11:16:00,87.8,24.7,30.03,WSW,248,1.1,2.9,1,0.00,,,0.00,WUHU216HW,2013-07-10 15:16:00,
2013-07-10 11:21:00,87.8,24.7,30.03,WSW,248,1.3,2.7,1,0.00,,,0.00,WUHU216HW,2013-07-10 15:21:00,
2013-07-10 11:26:00,88.6,25.2,30.03,West,270,1.3,2.7,1,0.00,,,0.00,WUHU216HW,2013-07-10 15:26:00,
2013-07-10 11:31:00,88.7,25.3,30.03,WSW,248,0.4,4.3,1,0.00,,,0.00,WUHU216HW,2013-07-10 15:31:00,
2013-07-10 11:36:00,89.1,25.6,30.04,SW,225,0.4,4.3,1,0.00,,,0.00,WUHU216HW,2013-07-10 15:36:00,
2013-07-10 11:41:00,88.9,25.4,30.04,WSW,248,1.1,2.5,1,0.00,,,0.00,WUHU216HW,2013-07-10 15:41:00,
2013-07-10 11:46:00,88.9,25.4,30.03,West,270,1.6,2.5,1,0.00,,,0.00,WUHU216HW,2013-07-10 15:46:00,
2013-07-10 11:51:00,88.9,25.4,30.03,WSW,248,1.1,2.0,1,0.00,,,0.00,WUHU216HW,2013-07-10 15:51:00,
2013-07-10 11:56:00,88.9,25.4,30.03,WSW,248,2.9,3.4,5,0.00,,,0.00,WUHU216HW,2013-07-10 15:56:00,
2013-07-10 12:01:00,89.3,25.7,30.03,NW,315,1.8,3.4,2,0.00,,,0.00,WUHU216HW,2013-07-10 16:01:00,
2013-07-10 12:06:00,88.9,25.4,30.03,WNW,293,0.9,4.5,10,0.00,,,0.00,WUHU216HW,2013-07-10 16:06:00,
2013-07-10 12:11:00,89.1,25.6,30.04,WSW,248,0.4,4.5,2,0.00,,,0.00,WUHU216HW,2013-07-10 16:11:00,
2013-07-10 12:16:00,89.6,25.9,30.03,WSW,248,1.6,5.4,1,0.00,,,0.00,WUHU216HW,2013-07-10 16:16:00,
2013-07-10 12:21:00,89.6,29.4,30.03,NNW,338,1.8,5.4,12,0.00,,,0.00,WUHU216HW,2013-07-10 16:21:00,
2013-07-10 12:26:00,90.0,26.2,30.03,WSW,248,0.9,4.0,6,0.00,,,0.00,WUHU216HW,2013-07-10 16:26:00,
2013-07-10 12:31:00,90.4,26.5,30.03,West,270,1.1,4.0,1,0.00,,,0.00,WUHU216HW,2013-07-10 16:31:00,
2013-07-10 12:36:00,90.2,28.1,30.03,SW,225,1.3,3.4,11,0.00,,,0.00,WUHU216HW,2013-07-10 16:36:00,
2013-07-10 12:41:00,90.0,26.2,30.03,WSW,248,1.3,3.8,7,0.00,,,0.00,WUHU216HW,2013-07-10 16:41:00,
2013-07-10 12:46:00,90.2,26.4,30.03,WSW,248,3.1,3.8,7,0.00,,,0.00,WUHU216HW,2013-07-10 16:46:00,
2013-07-10 12:51:00,90.0,26.2,30.03,West,270,1.8,3.4,10,0.00,,,0.00,WUHU216HW,2013-07-10 16:51:00,
2013-07-10 12:56:00,90.0,28.0,30.02,WSW,248,2.5,3.4,11,0.00,,,0.00,WUHU216HW,2013-07-10 16:56:00,
2013-07-10 13:01:00,90.0,26.2,30.01,WSW,248,2.7,3.6,3,0.00,,,0.00,WUHU216HW,2013-07-10 17:01:00,
2013-07-10 13:06:00,90.4,26.5,30.01,SW,225,2.0,4.5,10,0.00,,,0.00,WUHU216HW,2013-07-10 17:06:00,
2013-07-10 13:11:00,90.7,26.8,30.02,WSW,248,2.0,4.5,10,0.00,,,0.00,WUHU216HW,2013-07-10 17:11:00,
2013-07-10 13:16:00,90.4,37.0,30.01,SSW,203,1.1,4.0,16,0.00,,,0.00,WUHU216HW,2013-07-10 17:16:00,
2013-07-10 13:21:00,90.4,30.0,30.01,SSW,203,1.6,3.1,12,0.00,,,0.00,WUHU216HW,2013-07-10 17:21:00,
2013-07-10 13:26:00,90.4,30.0,30.01,NNW,338,1.6,3.1,12,0.00,,,0.00,WUHU216HW,2013-07-10 17:26:00,
2013-07-10 13:31:00,90.5,31.9,30.01,West,270,1.1,2.9,13,0.00,,,0.00,WUHU216HW,2013-07-10 17:31:00,
2013-07-10 13:36:00,90.7,40.8,30.01,WSW,248,2.5,3.6,18,0.00,,,0.00,WUHU216HW,2013-07-10 17:36:00,
2013-07-10 13:41:00,90.4,31.8,30.01,West,270,2.2,3.6,13,0.00,,,0.00,WUHU216HW,2013-07-10 17:41:00,
2013-07-10 13:46:00,91.1,27.1,30.00,East,90,0.7,3.8,8,0.00,,,0.00,WUHU216HW,2013-07-10 17:46:00,
2013-07-10 13:51:00,91.4,41.9,30.00,West,270,2.0,3.8,18,0.00,,,0.00,WUHU216HW,2013-07-10 17:51:00,
2013-07-10 13:56:00,91.3,27.2,30.00,West,270,0.0,2.7,10,0.00,,,0.00,WUHU216HW,2013-07-10 17:56:00,
2013-07-10 14:01:00,91.8,29.3,29.99,WSW,248,1.6,2.7,11,0.00,,,0.00,WUHU216HW,2013-07-10 18:01:00,
2013-07-10 14:06:00,91.8,42.3,29.99,West,270,1.1,2.7,18,0.00,,,0.00,WUHU216HW,2013-07-10 18:06:00,
2013-07-10 14:11:00,90.9,40.9,29.99,WSW,248,0.7,2.7,18,0.00,,,0.00,WUHU216HW,2013-07-10 18:11:00,
2013-07-10 14:16:00,90.7,30.2,29.99,WSW,248,2.7,2.9,12,0.00,,,0.00,WUHU216HW,2013-07-10 18:16:00,
2013-07-10 14:21:00,90.4,28.3,29.98,WSW,248,0.4,2.9,11,0.00,,,0.00,WUHU216HW,2013-07-10 18:21:00,
2013-07-10 14:26:00,89.8,34.8,29.98,WSW,248,2.5,6.9,15,0.00,,,0.00,WUHU216HW,2013-07-10 18:26:00,
2013-07-10 14:31:00,89.6,25.9,29.97,WSW,248,1.6,6.9,5,0.00,,,0.00,WUHU216HW,2013-07-10 18:31:00,
2013-07-10 14:36:00,90.5,26.6,29.97,SSE,158,1.1,4.7,6,0.00,,,0.00,WUHU216HW,2013-07-10 18:36:00,
2013-07-10 14:41:00,91.8,29.3,29.97,WSW,248,1.8,4.7,11,0.00,,,0.00,WUHU216HW,2013-07-10 18:41:00,
2013-07-10 14:46:00,92.5,33.4,29.97,West,270,6.3,6.9,13,0.00,,,0.00,WUHU216HW,2013-07-10 18:46:00,
2013-07-10 14:51:00,92.9,52.6,29.97,WNW,293,1.1,6.9,26,0.00,,,0.00,WUHU216HW,2013-07-10 18:51:00,
2013-07-10 14:56:00,93.2,58.0,29.96,WNW,293,1.3,6.7,31,0.00,,,0.00,WUHU216HW,2013-07-10 18:56:00,
2013-07-10 15:01:00,92.9,52.6,29.96,WSW,248,2.5,6.7,26,0.00,,,0.00,WUHU216HW,2013-07-10 19:01:00,
2013-07-10 15:06:00,92.2,57.2,29.96,WSW,248,1.8,4.5,31,0.00,,,0.00,WUHU216HW,2013-07-10 19:06:00,
2013-07-10 15:11:00,91.8,48.4,29.96,WNW,293,3.4,5.1,23,0.00,,,0.00,WUHU216HW,2013-07-10 19:11:00,
2013-07-10 15:16:00,91.6,41.5,29.96,SW,225,4.7,5.8,18,0.00,,,0.00,WUHU216HW,2013-07-10 19:16:00,
2013-07-10 15:21:00,91.8,47.4,29.95,West,270,6.3,6.3,22,0.00,,,0.00,WUHU216HW,2013-07-10 19:21:00,
2013-07-10 15:26:00,89.8,51.1,29.96,West,270,3.4,13.0,27,0.00,,,0.00,WUHU216HW,2013-07-10 19:26:00,
2013-07-10 15:31:00,88.0,46.4,29.96,SW,225,1.8,13.0,24,0.00,,,0.00,WUHU216HW,2013-07-10 19:31:00,
2013-07-10 15:36:00,87.1,49.9,29.96,WSW,248,3.6,6.0,28,0.00,,,0.00,WUHU216HW,2013-07-10 19:36:00,
2013-07-10 15:41:00,86.4,44.9,29.96,West,270,2.2,6.0,24,0.00,,,0.00,WUHU216HW,2013-07-10 19:41:00,
2013-07-10 15:46:00,86.0,41.4,29.95,NE,45,1.3,6.0,21,0.00,,,0.00,WUHU216HW,2013-07-10 19:46:00,
2013-07-10 15:51:00,85.5,36.5,29.95,SW,225,3.4,5.4,18,0.00,,,0.00,WUHU216HW,2013-07-10 19:51:00,
2013-07-10 15:56:00,84.8,25.7,29.94,WSW,248,3.4,4.9,12,0.00,,,0.00,WUHU216HW,2013-07-10 19:56:00,
2013-07-10 16:01:00,83.9,21.5,29.94,WSW,248,3.4,4.9,10,0.00,,,0.00,WUHU216HW,2013-07-10 20:01:00,
2013-07-10 16:06:00,83.9,21.5,29.94,West,270,1.8,4.9,6,0.00,,,0.00,WUHU216HW,2013-07-10 20:06:00,
2013-07-10 16:11:00,84.1,21.7,29.94,WSW,248,1.1,3.4,7,0.00,,,0.00,WUHU216HW,2013-07-10 20:11:00,
2013-07-10 16:16:00,84.2,21.8,29.95,West,270,1.1,2.7,7,0.00,,,0.00,WUHU216HW,2013-07-10 20:16:00,
2013-07-10 16:21:00,84.4,22.0,29.95,WSW,248,1.8,2.5,6,0.00,,,0.00,WUHU216HW,2013-07-10 20:21:00,
2013-07-10 16:26:00,85.0,22.3,29.95,WSW,248,1.6,4.7,1,0.00,,,0.00,WUHU216HW,2013-07-10 20:26:00,
2013-07-10 16:31:00,85.3,22.7,29.95,WSW,248,1.1,4.7,1,0.00,,,0.00,WUHU216HW,2013-07-10 20:31:00,
2013-07-10 16:36:00,85.3,22.7,29.95,West,270,1.1,3.4,1,0.00,,,0.00,WUHU216HW,2013-07-10 20:36:00,
2013-07-10 16:41:00,85.3,22.7,29.94,West,270,1.6,4.5,1,0.00,,,0.00,WUHU216HW,2013-07-10 20:41:00,
2013-07-10 16:46:00,85.3,22.7,29.94,SSW,203,0.2,4.5,1,0.00,,,0.00,WUHU216HW,2013-07-10 20:46:00,
2013-07-10 16:51:00,85.1,22.5,29.95,SW,225,1.6,4.0,1,0.00,,,0.00,WUHU216HW,2013-07-10 20:51:00,
2013-07-10 16:56:00,84.2,21.8,29.95,WSW,248,2.5,4.0,1,0.00,,,0.00,WUHU216HW,2013-07-10 20:56:00,
2013-07-10 17:01:00,82.8,20.8,29.95,WSW,248,1.3,4.0,1,0.00,,,0.00,WUHU216HW,2013-07-10 21:01:00,
2013-07-10 17:06:00,82.1,20.3,29.95,ENE,68,1.8,4.3,1,0.00,,,0.00,WUHU216HW,2013-07-10 21:06:00,
2013-07-10 17:11:00,81.4,19.6,29.95,WSW,248,1.6,5.4,1,0.00,,,0.00,WUHU216HW,2013-07-10 21:11:00,
2013-07-10 17:16:00,80.1,18.6,29.95,WSW,248,1.8,5.4,1,0.00,,,0.00,WUHU216HW,2013-07-10 21:16:00,
2013-07-10 17:21:00,79.4,18.1,29.95,WSW,248,1.1,5.1,1,0.02,,,0.02,WUHU216HW,2013-07-10 21:21:00,
2013-07-10 17:26:00,78.3,17.3,29.94,WSW,248,5.6,5.6,1,0.05,,,0.05,WUHU216HW,2013-07-10 21:26:00,
2013-07-10 17:31:00,77.6,16.7,29.94,SE,135,1.1,5.6,1,0.09,,,0.09,WUHU216HW,2013-07-10 21:31:00,
2013-07-10 17:36:00,77.0,16.4,29.94,SE,135,0.4,5.6,1,0.12,,,0.12,WUHU216HW,2013-07-10 21:36:00,
2013-07-10 17:41:00,76.7,16.1,29.94,West,270,0.4,1.8,1,0.19,,,0.19,WUHU216HW,2013-07-10 21:41:00,
2013-07-10 17:46:00,76.1,15.7,29.95,SW,225,1.3,1.6,1,0.22,,,0.22,WUHU216HW,2013-07-10 21:46:00,
2013-07-10 17:51:00,75.6,15.2,29.97,West,270,1.8,4.5,1,0.28,,,0.28,WUHU216HW,2013-07-10 21:51:00,
2013-07-10 17:56:00,75.8,15.4,29.97,ENE,68,2.0,13.9,1,0.52,,,0.51,WUHU216HW,2013-07-10 21:56:00,
2013-07-10 18:01:00,75.8,15.4,29.95,SE,135,0.4,13.9,1,0.61,,,0.61,WUHU216HW,2013-07-10 22:01:00,
2013-07-10 18:06:00,75.6,15.2,29.95,East,90,0.7,2.0,1,0.61,,,0.61,WUHU216HW,2013-07-10 22:06:00,
2013-07-10 18:11:00,74.3,14.3,29.96,WSW,248,4.7,4.7,1,0.61,,,0.61,WUHU216HW,2013-07-10 22:11:00,
2013-07-10 18:16:00,73.6,13.8,29.97,South,180,3.4,4.7,1,0.59,,,0.61,WUHU216HW,2013-07-10 22:16:00,
2013-07-10 18:21:00,73.1,13.4,29.96,WSW,248,2.0,4.7,1,0.57,,,0.61,WUHU216HW,2013-07-10 22:21:00,
2013-07-10 18:26:00,73.4,13.7,29.97,SW,225,1.6,3.4,1,0.56,,,0.62,WUHU216HW,2013-07-10 22:26:00,
2013-07-10 18:31:00,73.8,14.0,29.96,SW,225,1.8,5.1,1,0.52,,,0.62,WUHU216HW,2013-07-10 22:31:00,
2013-07-10 18:36:00,72.7,13.2,29.96,ESE,113,2.7,5.1,1,0.47,,,0.63,WUHU216HW,2013-07-10 22:36:00,
2013-07-10 18:41:00,72.7,13.2,29.96,WSW,248,1.6,4.0,1,0.43,,,0.63,WUHU216HW,2013-07-10 22:41:00,
2013-07-10 18:46:00,72.2,12.7,29.96,WSW,248,4.5,4.5,1,0.42,,,0.64,WUHU216HW,2013-07-10 22:46:00,
2013-07-10 18:51:00,71.8,12.4,29.96,WSW,248,3.4,4.5,1,0.33,,,0.64,WUHU216HW,2013-07-10 22:51:00,
2013-07-10 18:56:00,71.3,12.0,29.96,ESE,113,0.4,4.5,1,0.06,,,0.65,WUHU216HW,2013-07-10 22:56:00,
2013-07-10 19:01:00,72.9,13.2,29.96,NNE,23,0.4,3.4,1,0.04,,,0.65,WUHU216HW,2013-07-10 23:01:00,
2013-07-10 19:06:00,73.4,13.7,29.96,North,0,0.0,1.8,1,0.04,,,0.65,WUHU216HW,2013-07-10 23:06:00,
2013-07-10 19:11:00,73.8,14.0,29.96,East,90,0.9,0.9,1,0.04,,,0.65,WUHU216HW,2013-07-10 23:11:00,
2013-07-10 19:16:00,73.4,13.7,29.96,SW,225,0.4,0.9,1,0.04,,,0.65,WUHU216HW,2013-07-10 23:16:00,
2013-07-10 19:21:00,73.3,13.5,29.96,SW,225,0.0,0.9,1,0.03,,,0.65,WUHU216HW,2013-07-10 23:21:00,
2013-07-10 19:26:00,73.1,13.4,29.96,SW,225,0.4,0.4,1,0.04,,,0.66,WUHU216HW,2013-07-10 23:26:00,
2013-07-10 19:31:00,72.4,12.8,29.96,SW,225,0.0,0.7,1,0.05,,,0.67,WUHU216HW,2013-07-10 23:31:00,
2013-07-10 19:36:00,72.4,12.8,29.96,ESE,113,0.4,1.1,1,0.04,,,0.67,WUHU216HW,2013-07-10 23:36:00,
2013-07-10 19:41:00,72.2,12.7,29.96,ESE,113,0.0,1.1,1,0.05,,,0.68,WUHU216HW,2013-07-10 23:41:00,
2013-07-10 19:46:00,72.2,12.7,29.96,ESE,113,0.0,0.9,1,0.04,,,0.68,WUHU216HW,2013-07-10 23:46:00,
2013-07-10 19:51:00,72.0,12.5,29.97,ESE,113,0.0,0.0,1,0.04,,,0.68,WUHU216HW,2013-07-10 23:51:00,
2013-07-10 19:56:00,71.6,12.2,29.96,ESE,113,0.0,0.0,1,0.03,,,0.68,WUHU216HW,2013-07-10 23:56:00,
2013-07-10 20:01:00,71.6,12.2,29.97,ESE,113,0.0,0.7,1,0.04,,,0.69,WUHU216HW,2013-07-11 00:01:00,
2013-07-10 20:06:00,71.5,12.1,29.97,ESE,113,0.0,0.7,1,0.04,,,0.69,WUHU216HW,2013-07-11 00:06:00,
2013-07-10 20:11:00,71.1,11.8,29.96,ESE,113,0.0,0.0,1,0.04,,,0.69,WUHU216HW,2013-07-11 00:11:00,
2013-07-10 20:16:00,71.3,12.0,29.97,ESE,113,0.0,0.0,1,0.04,,,0.69,WUHU216HW,2013-07-11 00:16:00,
2013-07-10 20:21:00,70.9,11.7,29.96,ESE,113,0.0,0.0,1,0.04,,,0.69,WUHU216HW,2013-07-11 00:21:00,
2013-07-10 20:26:00,70.9,11.7,29.96,ESE,113,0.0,0.0,1,0.03,,,0.69,WUHU216HW,2013-07-11 00:26:00,
2013-07-10 20:31:00,70.7,11.5,29.96,ESE,113,0.0,0.0,1,0.02,,,0.69,WUHU216HW,2013-07-11 00:31:00,
2013-07-10 20:36:00,70.6,11.3,29.96,NNE,23,0.0,0.0,1,0.01,,,0.69,WUHU216HW,2013-07-11 00:36:00,
2013-07-10 20:41:00,70.2,11.1,29.96,ENE,68,0.0,0.0,1,0.01,,,0.69,WUHU216HW,2013-07-11 00:41:00,
2013-07-10 20:46:00,70.4,11.3,29.95,ENE,68,0.0,0.0,1,0.01,,,0.69,WUHU216HW,2013-07-11 00:46:00,
2013-07-10 20:51:00,70.4,11.3,29.95,ENE,68,0.0,0.0,1,0.01,,,0.69,WUHU216HW,2013-07-11 00:51:00,
2013-07-10 20:56:00,70.4,11.3,29.95,ENE,68,0.0,0.0,1,0.00,,,0.69,WUHU216HW,2013-07-11 00:56:00,
2013-07-10 21:01:00,70.4,11.3,29.94,ENE,68,0.0,0.0,1,0.00,,,0.69,WUHU216HW,2013-07-11 01:01:00,
2013-07-10 21:06:00,70.4,11.3,29.94,ENE,68,0.0,0.0,1,0.00,,,0.69,WUHU216HW,2013-07-11 01:06:00,
2013-07-10 21:11:00,69.8,10.8,29.94,West,270,0.0,0.4,1,0.01,,,0.70,WUHU216HW,2013-07-11 01:11:00,
2013-07-10 21:16:00,69.7,10.7,29.94,NNW,338,0.0,0.4,1,0.01,,,0.70,WUHU216HW,2013-07-11 01:16:00,
2013-07-10 21:21:00,69.7,10.7,29.94,ENE,68,0.0,0.2,1,0.01,,,0.70,WUHU216HW,2013-07-11 01:21:00,
2013-07-10 21:26:00,69.8,10.8,29.94,ENE,68,0.0,0.0,1,0.01,,,0.70,WUHU216HW,2013-07-11 01:26:00,
2013-07-10 21:31:00,69.7,10.7,29.95,ENE,68,0.0,0.0,1,0.01,,,0.70,WUHU216HW,2013-07-11 01:31:00,
2013-07-10 21:36:00,69.8,10.8,29.95,ENE,68,0.0,0.0,1,0.01,,,0.70,WUHU216HW,2013-07-11 01:36:00,
2013-07-10 21:41:00,69.5,10.5,29.96,WSW,248,0.9,1.8,1,0.01,,,0.70,WUHU216HW,2013-07-11 01:41:00,
2013-07-10 21:46:00,69.8,10.8,29.98,ESE,113,2.5,3.4,1,0.01,,,0.70,WUHU216HW,2013-07-11 01:46:00,
2013-07-10 21:51:00,69.8,10.8,29.98,SW,225,4.0,4.0,1,0.01,,,0.70,WUHU216HW,2013-07-11 01:51:00,
2013-07-10 21:56:00,69.5,10.5,29.98,North,0,1.1,5.4,1,0.02,,,0.71,WUHU216HW,2013-07-11 01:56:00,
2013-07-10 22:01:00,69.3,10.5,29.98,WSW,248,4.7,5.4,1,0.03,,,0.72,WUHU216HW,2013-07-11 02:01:00,
2013-07-10 22:06:00,69.1,10.3,29.99,West,270,0.9,4.7,1,0.03,,,0.73,WUHU216HW,2013-07-11 02:06:00,
2013-07-10 22:11:00,68.9,10.2,29.98,West,270,0.0,4.7,1,0.04,,,0.74,WUHU216HW,2013-07-11 02:11:00,
2013-07-10 22:16:00,68.8,10.1,29.98,SSW,203,1.3,1.3,1,0.05,,,0.75,WUHU216HW,2013-07-11 02:16:00,
2013-07-10 22:21:00,68.6,9.9,29.98,WSW,248,0.7,1.8,1,0.06,,,0.76,WUHU216HW,2013-07-11 02:21:00,
2013-07-10 22:26:00,68.4,9.8,29.98,WSW,248,1.3,1.8,1,0.07,,,0.77,WUHU216HW,2013-07-11 02:26:00,
2013-07-10 22:31:00,68.2,9.6,29.98,SW,225,2.0,4.0,1,0.07,,,0.77,WUHU216HW,2013-07-11 02:31:00,
2013-07-10 22:36:00,68.0,9.5,29.98,WSW,248,0.9,4.0,1,0.07,,,0.77,WUHU216HW,2013-07-11 02:36:00,
2013-07-10 22:41:00,67.9,9.4,29.98,WSW,248,1.1,2.7,1,0.08,,,0.78,WUHU216HW,2013-07-11 02:41:00,
2013-07-10 22:46:00,67.7,9.3,29.98,ENE,68,0.7,4.0,1,0.09,,,0.79,WUHU216HW,2013-07-11 02:46:00,
2013-07-10 22:51:00,67.7,9.3,29.98,WSW,248,0.4,4.0,1,0.09,,,0.79,WUHU216HW,2013-07-11 02:51:00,
2013-07-10 22:56:00,67.5,9.1,29.98,WSW,248,0.9,2.9,1,0.11,,,0.82,WUHU216HW,2013-07-11 02:56:00,
2013-07-10 23:01:00,67.5,9.1,29.98,WSW,248,0.4,2.7,1,0.11,,,0.83,WUHU216HW,2013-07-11 03:01:00,
2013-07-10 23:06:00,67.3,9.0,29.98,WSW,248,0.4,2.7,1,0.10,,,0.83,WUHU216HW,2013-07-11 03:06:00,
2013-07-10 23:11:00,67.3,9.0,29.98,WSW,248,0.2,0.7,1,0.11,,,0.85,WUHU216HW,2013-07-11 03:11:00,
2013-07-10 23:16:00,67.3,9.0,29.98,WNW,293,0.4,0.9,1,0.11,,,0.86,WUHU216HW,2013-07-11 03:16:00,
2013-07-10 23:21:00,67.3,9.0,29.97,NW,315,0.7,1.1,1,0.11,,,0.87,WUHU216HW,2013-07-11 03:21:00,
2013-07-10 23:26:00,67.3,9.0,29.96,West,270,0.0,1.1,1,0.11,,,0.88,WUHU216HW,2013-07-11 03:26:00,
2013-07-10 23:31:00,67.5,9.1,29.97,SW,225,1.3,1.8,1,0.12,,,0.89,WUHU216HW,2013-07-11 03:31:00,
2013-07-10 23:36:00,67.7,9.3,29.96,North,0,0.4,1.8,1,0.11,,,0.89,WUHU216HW,2013-07-11 03:36:00,
2013-07-10 23:41:00,67.7,9.3,29.98,WSW,248,1.1,1.3,1,0.12,,,0.91,WUHU216HW,2013-07-11 03:41:00,
2013-07-10 23:46:00,67.7,9.3,29.98,West,270,0.9,1.1,1,0.14,,,0.93,WUHU216HW,2013-07-11 03:46:00,
2013-07-10 23:51:00,67.7,9.3,29.98,WSW,248,1.6,1.8,1,0.14,,,0.95,WUHU216HW,2013-07-11 03:51:00,
2013-07-10 23:56:00,67.7,9.3,29.98,SW,225,4.0,4.0,1,0.13,,,0.97,WUHU216HW,2013-07-11 03:56:00,